Kilkenny, Minnesota
Current Conditions -  °F | °C
As of 4:14 PM on Tuesday 21 Oct 2014 (Local Time) from KFBL Reporting Station
Clear Clear  
Wind Chill: 16°   Ceiling: Unl
Heat Index: 16°   Visibility: 10mi
Dew Point:   Wind: 8mph
Humidity: 52%   Direction: 110°ESE
Pressure: 30.13"   Gusts: 16mph
Location:  44.31°N, 93.57°W
Report Text: KFBL 212114Z AUTO 11007G14KT 10SM CLR 16/06 A3013 RMK AO2
Loading
Personal Weather Stations






























Interactive Weather Map
Tropical Storm Tracking
New forecast layout! Learn more

10-Day Weather Forecast

Advertisements
Track Severe Weather on mobile